createdAt,value
2023-03-19T00:00:31.690Z,10.80
2023-03-19T00:05:33.599Z,10.98
2023-03-19T00:10:39.599Z,11.05
2023-03-19T00:15:41.659Z,11.55
2023-03-19T00:20:43.711Z,12.63
2023-03-19T00:25:45.353Z,13.05
2023-03-19T00:30:46.959Z,13.32
2023-03-19T00:35:49.036Z,15.00
2023-03-19T00:40:50.759Z,14.50
2023-03-19T00:45:52.746Z,16.02
2023-03-19T00:50:54.366Z,15.88
2023-03-19T00:55:56.169Z,17.63
2023-03-19T01:00:57.782Z,18.20
2023-03-19T01:05:59.517Z,17.33
2023-03-19T01:11:07.069Z,19.92
2023-03-19T01:16:09.416Z,16.15
2023-03-19T01:21:11.258Z,15.80
2023-03-19T01:26:19.604Z,14.90
2023-03-19T01:31:23.547Z,13.55
2023-03-19T01:36:57.622Z,17.75
2023-03-19T01:42:06.764Z,15.77
2023-03-19T01:47:25.174Z,14.07
2023-03-19T01:52:52.695Z,14.15
2023-03-19T01:58:04.825Z,14.35
2023-03-19T02:03:26.822Z,13.30
2023-03-19T02:08:37.902Z,12.80
2023-03-19T02:13:39.571Z,10.60
2023-03-19T02:18:41.673Z,13.25
2023-03-19T02:24:01.814Z,11.15
2023-03-19T02:29:20.204Z,11.32
2023-03-19T02:34:22.644Z,12.25
2023-03-19T02:39:32.993Z,11.30
2023-03-19T02:44:34.705Z,10.48
2023-03-19T02:49:36.366Z,13.13
2023-03-19T02:54:38.131Z,12.35
2023-03-19T02:59:39.857Z,13.50
2023-03-19T03:04:41.932Z,14.48
2023-03-19T03:09:43.614Z,12.68
2023-03-19T03:14:45.763Z,18.88
2023-03-19T03:19:48.344Z,16.17
2023-03-19T03:24:49.979Z,19.98
2023-03-19T03:29:52.114Z,16.50
2023-03-19T03:34:53.709Z,17.92
2023-03-19T03:39:55.355Z,20.27
2023-03-19T03:44:57.013Z,19.30
2023-03-19T03:49:58.891Z,22.55
2023-03-19T03:55:01.618Z,23.23
2023-03-19T04:00:05.062Z,23.00
2023-03-19T04:05:14.860Z,26.05
2023-03-19T04:10:16.824Z,25.45
2023-03-19T04:15:19.029Z,28.48
2023-03-19T04:20:23.692Z,27.52
2023-03-19T04:25:26.100Z,31.60
2023-03-19T04:30:28.212Z,31.50
2023-03-19T04:35:31.415Z,29.05
2023-03-19T04:40:33.708Z,28.23
2023-03-19T04:45:36.685Z,29.45
2023-03-19T04:50:39.467Z,28.35
2023-03-19T04:55:41.706Z,29.92
2023-03-19T05:00:49.797Z,32.00
2023-03-19T05:05:56.438Z,31.42
2023-03-19T05:10:58.896Z,36.72
2023-03-19T05:16:06.688Z,34.40
2023-03-19T05:21:12.985Z,29.63
2023-03-19T05:26:15.982Z,31.35
2023-03-19T05:31:37.644Z,25.65
2023-03-19T05:36:39.420Z,19.55
2023-03-19T05:46:55.854Z,13.43
2023-03-19T05:52:00.353Z,16.83
2023-03-19T05:57:03.486Z,16.25
2023-03-19T06:02:13.820Z,17.65
2023-03-19T06:07:16.183Z,14.98
2023-03-19T06:12:18.157Z,16.73
2023-03-19T06:17:49.098Z,19.25
2023-03-19T06:22:52.462Z,18.27
2023-03-19T06:27:56.907Z,22.05
2023-03-19T06:33:03.010Z,22.90
2023-03-19T06:38:07.485Z,26.17
2023-03-19T06:43:09.479Z,22.77
2023-03-19T06:48:11.193Z,25.45
2023-03-19T06:53:14.048Z,25.00
2023-03-19T06:58:15.798Z,25.65
2023-03-19T07:03:17.378Z,25.55
2023-03-19T07:08:19.475Z,29.15
2023-03-19T07:13:21.338Z,27.80
2023-03-19T07:18:22.939Z,27.50
2023-03-19T07:23:24.586Z,25.05
2023-03-19T07:28:26.276Z,29.67
2023-03-19T07:33:27.840Z,24.77
2023-03-19T07:38:29.468Z,27.25
2023-03-19T07:43:31.503Z,33.67
2023-03-19T07:48:33.329Z,32.15
2023-03-19T07:53:34.930Z,32.40
2023-03-19T07:58:36.516Z,37.47
2023-03-19T08:03:38.642Z,35.13
2023-03-19T08:08:40.314Z,41.15
2023-03-19T08:13:42.727Z,37.65
2023-03-19T08:18:44.299Z,45.65
2023-03-19T08:23:46.235Z,40.38
2023-03-19T08:28:47.944Z,42.15
2023-03-19T08:33:49.583Z,47.08
2023-03-19T08:38:54.784Z,47.17
2023-03-19T08:43:56.480Z,42.33
2023-03-19T08:48:58.080Z,44.53
2023-03-19T08:53:59.730Z,45.33
2023-03-19T08:59:01.720Z,40.80
2023-03-19T09:04:03.649Z,41.28
2023-03-19T09:09:06.462Z,35.67
2023-03-19T09:14:09.353Z,32.67
2023-03-19T09:19:11.214Z,32.22
2023-03-19T09:24:12.946Z,37.80
2023-03-19T09:29:14.711Z,30.73
2023-03-19T09:34:16.523Z,34.10
2023-03-19T09:39:18.198Z,35.00
2023-03-19T09:44:29.699Z,32.50
2023-03-19T09:49:39.874Z,33.50
2023-03-19T09:54:48.276Z,36.78
2023-03-19T09:59:49.980Z,31.42
2023-03-19T10:05:11.319Z,33.35
2023-03-19T10:10:48.455Z,29.52
2023-03-19T10:15:51.233Z,34.97
2023-03-19T10:21:02.600Z,31.15
2023-03-19T10:26:07.269Z,29.40
2023-03-19T10:31:17.794Z,28.30
2023-03-19T10:36:22.272Z,30.70
2023-03-19T10:41:45.518Z,33.45
2023-03-19T10:46:47.333Z,28.40
2023-03-19T10:51:49.382Z,27.20
2023-03-19T10:56:55.069Z,34.03
2023-03-19T11:01:58.867Z,31.15
2023-03-19T11:07:11.328Z,33.85
2023-03-19T11:12:31.488Z,27.17
2023-03-19T11:18:01.279Z,33.88
2023-03-19T11:23:12.583Z,28.77
2023-03-19T11:28:19.149Z,25.63
2023-03-19T11:33:43.657Z,27.23
2023-03-19T11:39:07.244Z,33.25
2023-03-19T11:44:28.844Z,30.15
2023-03-19T11:49:43.069Z,30.70
2023-03-19T11:55:12.272Z,25.88
2023-03-19T12:00:41.095Z,32.63
2023-03-19T12:05:56.874Z,38.30
2023-03-19T12:11:17.351Z,30.52
2023-03-19T12:16:49.688Z,32.83
2023-03-19T12:22:04.958Z,30.15
2023-03-19T12:27:25.054Z,32.63
2023-03-19T12:33:02.281Z,29.75
2023-03-19T12:38:21.156Z,29.20
2023-03-19T12:43:32.352Z,28.92
2023-03-19T12:48:58.403Z,23.98
2023-03-19T12:54:24.331Z,28.08
2023-03-19T12:59:29.121Z,29.55
2023-03-19T13:04:37.564Z,24.33
2023-03-19T13:09:59.187Z,23.95
2023-03-19T13:15:06.308Z,18.60
2023-03-19T13:20:20.418Z,21.45
2023-03-19T13:25:27.649Z,19.50
2023-03-19T13:30:29.981Z,17.17
2023-03-19T13:35:34.753Z,14.88
2023-03-19T13:40:42.685Z,13.90
2023-03-19T13:45:44.605Z,14.53
2023-03-19T13:51:04.929Z,13.32
2023-03-19T14:01:30.462Z,11.35
2023-03-19T14:06:35.118Z,14.25
2023-03-19T14:11:37.839Z,14.77
2023-03-19T14:16:46.588Z,17.50
2023-03-19T14:22:00.353Z,15.27
2023-03-19T14:27:11.001Z,19.67
2023-03-19T14:32:22.202Z,20.00
2023-03-19T14:37:34.592Z,24.42
2023-03-19T14:43:03.242Z,22.45
2023-03-19T14:48:23.692Z,25.48
2023-03-19T14:53:41.571Z,27.75
2023-03-19T14:58:51.454Z,30.95
2023-03-19T15:04:00.658Z,27.50
2023-03-19T15:09:02.753Z,27.90
2023-03-19T15:14:32.974Z,24.98
2023-03-19T15:19:36.347Z,30.92
2023-03-19T15:24:38.151Z,24.35
2023-03-19T15:29:39.838Z,25.55
2023-03-19T15:34:42.356Z,22.30
2023-03-19T15:39:51.748Z,25.85
2023-03-19T15:44:59.091Z,28.23
2023-03-19T15:50:12.312Z,24.98
2023-03-19T15:55:15.581Z,27.95
2023-03-19T16:00:18.952Z,28.35
2023-03-19T16:05:29.722Z,23.58
2023-03-19T16:10:38.994Z,25.15
2023-03-19T16:15:44.927Z,23.67
2023-03-19T16:21:10.355Z,20.70
2023-03-19T16:26:41.247Z,24.48
2023-03-19T16:31:46.408Z,22.43
2023-03-19T16:36:48.933Z,18.25
2023-03-19T16:42:28.224Z,20.75
2023-03-19T16:47:29.829Z,15.93
2023-03-19T16:52:31.924Z,19.45
2023-03-19T16:57:33.546Z,12.65
2023-03-19T17:02:35.407Z,13.82
2023-03-19T17:07:37.017Z,6.35
2023-03-19T17:12:38.632Z,4.38
2023-03-19T17:17:40.535Z,4.82
2023-03-19T17:22:42.315Z,3.67
2023-03-19T17:27:45.372Z,3.40
2023-03-19T17:32:49.652Z,3.75
2023-03-19T17:37:52.572Z,4.57
2023-03-19T17:42:55.657Z,5.57
2023-03-19T17:47:58.490Z,4.70
2023-03-19T17:53:00.714Z,5.40
2023-03-19T17:58:02.318Z,5.40
2023-03-19T18:03:03.987Z,5.97
2023-03-19T18:08:05.965Z,10.20
2023-03-19T18:13:09.126Z,19.85
2023-03-19T18:18:18.977Z,17.33
2023-03-19T18:23:22.148Z,12.88
2023-03-19T18:28:23.776Z,15.60
2023-03-19T18:33:29.258Z,15.68
2023-03-19T18:38:30.908Z,11.50
2023-03-19T18:43:32.577Z,15.57
2023-03-19T18:48:34.302Z,10.63
2023-03-19T18:53:35.977Z,15.13
2023-03-19T18:58:39.125Z,13.43
2023-03-19T19:03:40.839Z,12.68
2023-03-19T19:08:42.538Z,15.30
2023-03-19T19:13:55.906Z,13.40
2023-03-19T19:18:58.097Z,14.70
2023-03-19T19:23:59.739Z,12.02
2023-03-19T19:29:01.540Z,13.88
2023-03-19T19:34:03.214Z,12.13
2023-03-19T19:39:05.038Z,11.63
2023-03-19T19:44:07.254Z,12.52
2023-03-19T19:49:14.069Z,14.80
2023-03-19T19:54:16.174Z,13.95
2023-03-19T19:59:18.150Z,13.23
2023-03-19T20:04:21.281Z,10.15
2023-03-19T20:09:23.000Z,13.02
2023-03-19T20:14:24.705Z,10.05
2023-03-19T20:19:26.376Z,11.70
2023-03-19T20:24:28.013Z,11.10
2023-03-19T20:29:34.838Z,8.07
2023-03-19T20:34:39.104Z,10.40
2023-03-19T20:39:41.489Z,10.38
2023-03-19T20:44:44.174Z,10.70
2023-03-19T20:49:46.251Z,8.05
2023-03-19T20:54:48.294Z,8.38
2023-03-19T20:59:50.005Z,7.07
2023-03-19T21:04:51.770Z,9.27
2023-03-19T21:09:53.615Z,6.68
2023-03-19T21:14:55.692Z,10.45
2023-03-19T21:19:57.507Z,10.40
2023-03-19T21:25:05.792Z,5.55
2023-03-19T21:30:08.221Z,9.30
2023-03-19T21:35:22.386Z,7.18
2023-03-19T21:40:30.252Z,11.27
2023-03-19T21:45:36.496Z,5.03
2023-03-19T21:50:39.999Z,7.85
2023-03-19T21:55:41.743Z,8.60
2023-03-19T22:00:43.921Z,9.55
2023-03-19T22:05:46.284Z,9.90
2023-03-19T22:10:54.290Z,9.95
2023-03-19T22:15:58.610Z,13.30
2023-03-19T22:21:00.189Z,6.72
2023-03-19T22:26:01.990Z,7.85
2023-03-19T22:31:04.201Z,8.63
2023-03-19T22:36:06.363Z,6.45
2023-03-19T22:41:25.020Z,6.70
2023-03-19T22:46:27.992Z,6.28
2023-03-19T22:51:32.568Z,11.30
2023-03-19T22:56:34.512Z,6.97
2023-03-19T23:01:39.998Z,5.93
2023-03-19T23:06:41.725Z,5.60
2023-03-19T23:11:43.888Z,5.95
2023-03-19T23:16:48.160Z,4.82
2023-03-19T23:21:50.670Z,8.68
2023-03-19T23:26:59.685Z,5.90
2023-03-19T23:32:01.922Z,8.83
2023-03-19T23:37:03.597Z,9.00
2023-03-19T23:42:06.268Z,6.20
2023-03-19T23:47:09.313Z,5.93
2023-03-19T23:52:13.453Z,7.95
2023-03-19T23:57:17.054Z,5.35
